sensor_id;sensor_type;location;lat;lon;timestamp;P1;durP1;ratioP1;P2;durP2;ratioP2
54977;SDS011;40873;47.522;19.106;2022-10-26T00:03:39;11.38;;;6.20;;
54977;SDS011;40873;47.522;19.106;2022-10-26T00:06:12;12.90;;;6.25;;
54977;SDS011;40873;47.522;19.106;2022-10-26T00:08:41;16.13;;;6.70;;
54977;SDS011;40873;47.522;19.106;2022-10-26T00:11:08;9.93;;;5.57;;
54977;SDS011;40873;47.522;19.106;2022-10-26T00:13:36;10.00;;;6.13;;
54977;SDS011;40873;47.522;19.106;2022-10-26T00:16:10;13.70;;;6.07;;
54977;SDS011;40873;47.522;19.106;2022-10-26T00:18:50;11.68;;;6.15;;
54977;SDS011;40873;47.522;19.106;2022-10-26T00:21:17;13.90;;;7.28;;
54977;SDS011;40873;47.522;19.106;2022-10-26T00:23:44;11.50;;;6.45;;
54977;SDS011;40873;47.522;19.106;2022-10-26T00:26:11;15.43;;;8.27;;
54977;SDS011;40873;47.522;19.106;2022-10-26T00:28:38;13.55;;;7.38;;
54977;SDS011;40873;47.522;19.106;2022-10-26T00:31:07;19.17;;;7.65;;
54977;SDS011;40873;47.522;19.106;2022-10-26T00:33:38;15.50;;;7.07;;
54977;SDS011;40873;47.522;19.106;2022-10-26T00:36:05;13.38;;;7.32;;
54977;SDS011;40873;47.522;19.106;2022-10-26T00:38:32;11.52;;;7.50;;
54977;SDS011;40873;47.522;19.106;2022-10-26T00:40:59;13.38;;;7.93;;
54977;SDS011;40873;47.522;19.106;2022-10-26T00:45:54;16.80;;;7.32;;
54977;SDS011;40873;47.522;19.106;2022-10-26T00:48:34;12.35;;;7.18;;
54977;SDS011;40873;47.522;19.106;2022-10-26T00:51:08;18.08;;;7.43;;
54977;SDS011;40873;47.522;19.106;2022-10-26T00:53:39;11.50;;;7.03;;
54977;SDS011;40873;47.522;19.106;2022-10-26T00:56:06;14.45;;;6.72;;
54977;SDS011;40873;47.522;19.106;2022-10-26T00:58:33;10.77;;;6.20;;
54977;SDS011;40873;47.522;19.106;2022-10-26T01:01:01;14.00;;;6.57;;
54977;SDS011;40873;47.522;19.106;2022-10-26T01:03:28;10.80;;;6.18;;
54977;SDS011;40873;47.522;19.106;2022-10-26T01:05:57;19.80;;;6.55;;
54977;SDS011;40873;47.522;19.106;2022-10-26T01:08:29;12.13;;;7.25;;
54977;SDS011;40873;47.522;19.106;2022-10-26T01:10:56;12.30;;;6.80;;
54977;SDS011;40873;47.522;19.106;2022-10-26T01:13:25;12.00;;;6.30;;
54977;SDS011;40873;47.522;19.106;2022-10-26T01:22:19;14.20;;;7.00;;
54977;SDS011;40873;47.522;19.106;2022-10-26T01:25:02;13.68;;;6.20;;
54977;SDS011;40873;47.522;19.106;2022-10-26T01:39:15;12.85;;;6.90;;
54977;SDS011;40873;47.522;19.106;2022-10-26T01:41:49;12.75;;;6.72;;
54977;SDS011;40873;47.522;19.106;2022-10-26T01:44:22;10.48;;;6.70;;
54977;SDS011;40873;47.522;19.106;2022-10-26T01:46:55;14.85;;;7.15;;
54977;SDS011;40873;47.522;19.106;2022-10-26T01:49:28;14.63;;;6.85;;
54977;SDS011;40873;47.522;19.106;2022-10-26T01:52:00;13.82;;;8.07;;
54977;SDS011;40873;47.522;19.106;2022-10-26T01:54:27;11.68;;;6.68;;
54977;SDS011;40873;47.522;19.106;2022-10-26T01:56:56;10.77;;;6.93;;
54977;SDS011;40873;47.522;19.106;2022-10-26T02:10:32;12.05;;;7.03;;
54977;SDS011;40873;47.522;19.106;2022-10-26T02:13:17;14.05;;;6.82;;
54977;SDS011;40873;47.522;19.106;2022-10-26T02:15:48;14.07;;;7.22;;
54977;SDS011;40873;47.522;19.106;2022-10-26T02:20:55;15.00;;;8.65;;
54977;SDS011;40873;47.522;19.106;2022-10-26T02:23:26;13.52;;;7.57;;
54977;SDS011;40873;47.522;19.106;2022-10-26T02:25:57;12.98;;;7.22;;
54977;SDS011;40873;47.522;19.106;2022-10-26T02:28:46;13.55;;;7.20;;
54977;SDS011;40873;47.522;19.106;2022-10-26T02:31:16;18.10;;;7.72;;
54977;SDS011;40873;47.522;19.106;2022-10-26T02:33:48;12.25;;;6.82;;
54977;SDS011;40873;47.522;19.106;2022-10-26T02:36:21;12.85;;;6.88;;
54977;SDS011;40873;47.522;19.106;2022-10-26T02:38:52;16.52;;;7.78;;
54977;SDS011;40873;47.522;19.106;2022-10-26T02:41:22;14.32;;;7.90;;
54977;SDS011;40873;47.522;19.106;2022-10-26T02:46:34;15.02;;;7.85;;
54977;SDS011;40873;47.522;19.106;2022-10-26T02:49:01;16.13;;;6.88;;
54977;SDS011;40873;47.522;19.106;2022-10-26T02:51:38;11.90;;;7.50;;
54977;SDS011;40873;47.522;19.106;2022-10-26T02:54:27;12.07;;;6.65;;
54977;SDS011;40873;47.522;19.106;2022-10-26T02:59:56;13.85;;;7.85;;
54977;SDS011;40873;47.522;19.106;2022-10-26T03:02:26;14.00;;;7.18;;
54977;SDS011;40873;47.522;19.106;2022-10-26T03:04:55;12.13;;;6.70;;
54977;SDS011;40873;47.522;19.106;2022-10-26T03:07:31;11.88;;;6.88;;
54977;SDS011;40873;47.522;19.106;2022-10-26T03:10:01;13.48;;;7.32;;
54977;SDS011;40873;47.522;19.106;2022-10-26T03:12:28;11.13;;;6.97;;
54977;SDS011;40873;47.522;19.106;2022-10-26T03:14:58;11.90;;;6.65;;
54977;SDS011;40873;47.522;19.106;2022-10-26T03:17:28;13.90;;;7.50;;
54977;SDS011;40873;47.522;19.106;2022-10-26T03:19:55;15.27;;;7.80;;
54977;SDS011;40873;47.522;19.106;2022-10-26T03:22:22;12.27;;;6.85;;
54977;SDS011;40873;47.522;19.106;2022-10-26T03:24:49;13.73;;;7.47;;
54977;SDS011;40873;47.522;19.106;2022-10-26T03:27:17;10.75;;;7.20;;
54977;SDS011;40873;47.522;19.106;2022-10-26T03:29:44;14.15;;;8.40;;
54977;SDS011;40873;47.522;19.106;2022-10-26T03:32:10;16.17;;;8.10;;
54977;SDS011;40873;47.522;19.106;2022-10-26T03:34:37;12.98;;;8.35;;
54977;SDS011;40873;47.522;19.106;2022-10-26T03:37:04;10.80;;;7.25;;
54977;SDS011;40873;47.522;19.106;2022-10-26T03:39:31;16.48;;;8.23;;
54977;SDS011;40873;47.522;19.106;2022-10-26T03:41:58;15.63;;;7.53;;
54977;SDS011;40873;47.522;19.106;2022-10-26T03:44:25;19.80;;;9.48;;
54977;SDS011;40873;47.522;19.106;2022-10-26T03:46:53;14.07;;;7.72;;
54977;SDS011;40873;47.522;19.106;2022-10-26T03:49:20;13.02;;;7.05;;
54977;SDS011;40873;47.522;19.106;2022-10-26T03:51:57;13.05;;;7.57;;
54977;SDS011;40873;47.522;19.106;2022-10-26T03:54:24;15.48;;;8.35;;
54977;SDS011;40873;47.522;19.106;2022-10-26T03:56:54;17.92;;;8.77;;
54977;SDS011;40873;47.522;19.106;2022-10-26T03:59:21;21.55;;;11.40;;
54977;SDS011;40873;47.522;19.106;2022-10-26T04:01:47;19.60;;;10.52;;
54977;SDS011;40873;47.522;19.106;2022-10-26T04:04:20;21.63;;;11.00;;
54977;SDS011;40873;47.522;19.106;2022-10-26T04:06:47;19.13;;;10.80;;
54977;SDS011;40873;47.522;19.106;2022-10-26T04:09:14;22.58;;;10.27;;
54977;SDS011;40873;47.522;19.106;2022-10-26T04:11:41;24.13;;;10.43;;
54977;SDS011;40873;47.522;19.106;2022-10-26T04:14:08;17.13;;;9.48;;
54977;SDS011;40873;47.522;19.106;2022-10-26T04:16:35;19.00;;;8.93;;
54977;SDS011;40873;47.522;19.106;2022-10-26T04:19:03;18.60;;;9.30;;
54977;SDS011;40873;47.522;19.106;2022-10-26T04:21:30;17.55;;;9.55;;
54977;SDS011;40873;47.522;19.106;2022-10-26T04:23:58;16.70;;;9.20;;
54977;SDS011;40873;47.522;19.106;2022-10-26T04:26:25;16.45;;;10.13;;
54977;SDS011;40873;47.522;19.106;2022-10-26T04:28:52;16.85;;;10.23;;
54977;SDS011;40873;47.522;19.106;2022-10-26T04:31:19;15.38;;;10.05;;
54977;SDS011;40873;47.522;19.106;2022-10-26T04:33:46;15.18;;;8.95;;
54977;SDS011;40873;47.522;19.106;2022-10-26T04:36:13;21.45;;;11.85;;
54977;SDS011;40873;47.522;19.106;2022-10-26T04:38:40;18.02;;;10.38;;
54977;SDS011;40873;47.522;19.106;2022-10-26T04:41:07;15.30;;;9.10;;
54977;SDS011;40873;47.522;19.106;2022-10-26T04:43:34;18.90;;;11.80;;
54977;SDS011;40873;47.522;19.106;2022-10-26T04:46:01;19.60;;;11.75;;
54977;SDS011;40873;47.522;19.106;2022-10-26T04:48:28;17.45;;;10.55;;
54977;SDS011;40873;47.522;19.106;2022-10-26T04:50:58;17.08;;;10.93;;
54977;SDS011;40873;47.522;19.106;2022-10-26T04:53:26;16.85;;;9.73;;
54977;SDS011;40873;47.522;19.106;2022-10-26T04:55:57;19.85;;;10.05;;
54977;SDS011;40873;47.522;19.106;2022-10-26T04:58:25;24.38;;;10.55;;
54977;SDS011;40873;47.522;19.106;2022-10-26T05:00:53;19.25;;;10.85;;
54977;SDS011;40873;47.522;19.106;2022-10-26T05:03:20;20.02;;;10.75;;
54977;SDS011;40873;47.522;19.106;2022-10-26T05:05:48;20.30;;;10.13;;
54977;SDS011;40873;47.522;19.106;2022-10-26T05:08:15;19.15;;;11.27;;
54977;SDS011;40873;47.522;19.106;2022-10-26T05:10:42;18.52;;;10.82;;
54977;SDS011;40873;47.522;19.106;2022-10-26T05:13:09;17.70;;;10.52;;
54977;SDS011;40873;47.522;19.106;2022-10-26T05:15:36;22.90;;;11.38;;
54977;SDS011;40873;47.522;19.106;2022-10-26T05:18:03;18.00;;;11.25;;
54977;SDS011;40873;47.522;19.106;2022-10-26T05:20:32;18.73;;;10.10;;
54977;SDS011;40873;47.522;19.106;2022-10-26T05:23:05;19.42;;;10.35;;
54977;SDS011;40873;47.522;19.106;2022-10-26T05:25:33;21.60;;;10.25;;
54977;SDS011;40873;47.522;19.106;2022-10-26T05:28:05;17.55;;;9.63;;
54977;SDS011;40873;47.522;19.106;2022-10-26T05:30:35;21.67;;;9.88;;
54977;SDS011;40873;47.522;19.106;2022-10-26T05:33:02;18.40;;;9.90;;
54977;SDS011;40873;47.522;19.106;2022-10-26T05:35:29;22.95;;;10.95;;
54977;SDS011;40873;47.522;19.106;2022-10-26T05:38:05;16.80;;;10.27;;
54977;SDS011;40873;47.522;19.106;2022-10-26T05:40:36;21.48;;;10.57;;
54977;SDS011;40873;47.522;19.106;2022-10-26T05:43:03;18.67;;;10.13;;
54977;SDS011;40873;47.522;19.106;2022-10-26T05:45:30;20.02;;;10.10;;
54977;SDS011;40873;47.522;19.106;2022-10-26T05:47:57;19.55;;;9.40;;
54977;SDS011;40873;47.522;19.106;2022-10-26T05:50:28;20.02;;;10.30;;
54977;SDS011;40873;47.522;19.106;2022-10-26T05:52:55;17.15;;;10.30;;
54977;SDS011;40873;47.522;19.106;2022-10-26T05:55:22;18.95;;;10.20;;
54977;SDS011;40873;47.522;19.106;2022-10-26T05:57:49;19.23;;;11.05;;
54977;SDS011;40873;47.522;19.106;2022-10-26T06:05:28;19.33;;;10.75;;
54977;SDS011;40873;47.522;19.106;2022-10-26T06:08:01;21.45;;;12.85;;
54977;SDS011;40873;47.522;19.106;2022-10-26T06:10:28;20.23;;;11.18;;
54977;SDS011;40873;47.522;19.106;2022-10-26T06:12:55;22.67;;;12.07;;
54977;SDS011;40873;47.522;19.106;2022-10-26T06:15:22;20.50;;;10.38;;
54977;SDS011;40873;47.522;19.106;2022-10-26T06:20:42;18.90;;;11.02;;
54977;SDS011;40873;47.522;19.106;2022-10-26T06:34:13;22.67;;;11.55;;
54977;SDS011;40873;47.522;19.106;2022-10-26T06:36:51;25.63;;;11.77;;
54977;SDS011;40873;47.522;19.106;2022-10-26T06:39:23;31.55;;;11.05;;
54977;SDS011;40873;47.522;19.106;2022-10-26T06:41:54;21.25;;;12.05;;
54977;SDS011;40873;47.522;19.106;2022-10-26T06:44:22;21.88;;;11.88;;
54977;SDS011;40873;47.522;19.106;2022-10-26T06:46:58;23.60;;;12.13;;
54977;SDS011;40873;47.522;19.106;2022-10-26T06:52:34;20.67;;;12.50;;
54977;SDS011;40873;47.522;19.106;2022-10-26T06:55:14;27.73;;;12.27;;
54977;SDS011;40873;47.522;19.106;2022-10-26T06:57:42;30.63;;;12.25;;
54977;SDS011;40873;47.522;19.106;2022-10-26T07:00:17;20.30;;;12.18;;
54977;SDS011;40873;47.522;19.106;2022-10-26T07:02:46;21.42;;;13.48;;
54977;SDS011;40873;47.522;19.106;2022-10-26T07:05:14;21.88;;;12.82;;
54977;SDS011;40873;47.522;19.106;2022-10-26T07:07:42;21.20;;;12.68;;
54977;SDS011;40873;47.522;19.106;2022-10-26T07:10:11;23.48;;;11.95;;
54977;SDS011;40873;47.522;19.106;2022-10-26T07:12:39;23.15;;;13.70;;
54977;SDS011;40873;47.522;19.106;2022-10-26T07:15:06;20.77;;;12.00;;
54977;SDS011;40873;47.522;19.106;2022-10-26T07:17:41;29.13;;;12.07;;
54977;SDS011;40873;47.522;19.106;2022-10-26T07:20:19;24.27;;;14.20;;
54977;SDS011;40873;47.522;19.106;2022-10-26T07:22:53;25.67;;;13.32;;
54977;SDS011;40873;47.522;19.106;2022-10-26T07:25:22;18.73;;;12.63;;
54977;SDS011;40873;47.522;19.106;2022-10-26T07:27:49;22.42;;;13.38;;
54977;SDS011;40873;47.522;19.106;2022-10-26T07:30:17;17.23;;;11.63;;
54977;SDS011;40873;47.522;19.106;2022-10-26T07:32:43;20.08;;;12.65;;
54977;SDS011;40873;47.522;19.106;2022-10-26T07:35:13;21.35;;;12.35;;
54977;SDS011;40873;47.522;19.106;2022-10-26T07:37:41;23.38;;;13.00;;
54977;SDS011;40873;47.522;19.106;2022-10-26T07:40:08;19.85;;;12.18;;
54977;SDS011;40873;47.522;19.106;2022-10-26T07:42:35;24.98;;;13.10;;
54977;SDS011;40873;47.522;19.106;2022-10-26T07:45:03;23.98;;;11.48;;
54977;SDS011;40873;47.522;19.106;2022-10-26T07:47:30;21.27;;;11.43;;
54977;SDS011;40873;47.522;19.106;2022-10-26T07:49:57;20.15;;;12.63;;
54977;SDS011;40873;47.522;19.106;2022-10-26T07:52:24;18.08;;;11.60;;
54977;SDS011;40873;47.522;19.106;2022-10-26T07:54:53;22.92;;;13.23;;
54977;SDS011;40873;47.522;19.106;2022-10-26T07:57:20;23.00;;;13.32;;
54977;SDS011;40873;47.522;19.106;2022-10-26T07:59:47;20.90;;;13.55;;
54977;SDS011;40873;47.522;19.106;2022-10-26T08:02:14;21.13;;;11.60;;
54977;SDS011;40873;47.522;19.106;2022-10-26T08:04:41;19.52;;;12.70;;
54977;SDS011;40873;47.522;19.106;2022-10-26T08:07:08;22.42;;;12.50;;
54977;SDS011;40873;47.522;19.106;2022-10-26T08:09:35;16.13;;;11.30;;
54977;SDS011;40873;47.522;19.106;2022-10-26T08:12:01;18.48;;;11.00;;
54977;SDS011;40873;47.522;19.106;2022-10-26T08:14:31;21.25;;;11.48;;
54977;SDS011;40873;47.522;19.106;2022-10-26T08:16:58;15.27;;;10.27;;
54977;SDS011;40873;47.522;19.106;2022-10-26T08:19:25;15.60;;;9.07;;
54977;SDS011;40873;47.522;19.106;2022-10-26T08:21:53;14.02;;;10.10;;
54977;SDS011;40873;47.522;19.106;2022-10-26T08:24:20;15.50;;;9.55;;
54977;SDS011;40873;47.522;19.106;2022-10-26T08:26:48;18.50;;;10.75;;
54977;SDS011;40873;47.522;19.106;2022-10-26T08:29:15;16.27;;;10.00;;
54977;SDS011;40873;47.522;19.106;2022-10-26T08:31:42;16.45;;;10.82;;
54977;SDS011;40873;47.522;19.106;2022-10-26T08:34:13;17.20;;;10.25;;
54977;SDS011;40873;47.522;19.106;2022-10-26T08:36:40;17.25;;;10.40;;
54977;SDS011;40873;47.522;19.106;2022-10-26T08:39:07;17.17;;;10.52;;
54977;SDS011;40873;47.522;19.106;2022-10-26T08:41:44;14.48;;;9.60;;
54977;SDS011;40873;47.522;19.106;2022-10-26T08:44:35;16.10;;;9.75;;
54977;SDS011;40873;47.522;19.106;2022-10-26T08:47:27;20.15;;;11.52;;
54977;SDS011;40873;47.522;19.106;2022-10-26T08:49:59;17.17;;;10.90;;
54977;SDS011;40873;47.522;19.106;2022-10-26T08:52:29;22.95;;;13.40;;
54977;SDS011;40873;47.522;19.106;2022-10-26T08:55:14;18.38;;;12.20;;
54977;SDS011;40873;47.522;19.106;2022-10-26T08:57:43;15.88;;;11.13;;
54977;SDS011;40873;47.522;19.106;2022-10-26T09:00:18;20.48;;;12.95;;
54977;SDS011;40873;47.522;19.106;2022-10-26T09:02:55;22.30;;;12.43;;
54977;SDS011;40873;47.522;19.106;2022-10-26T09:05:26;19.95;;;12.38;;
54977;SDS011;40873;47.522;19.106;2022-10-26T09:08:05;15.93;;;10.45;;
54977;SDS011;40873;47.522;19.106;2022-10-26T09:24:56;16.10;;;8.50;;
54977;SDS011;40873;47.522;19.106;2022-10-26T09:27:38;14.85;;;8.45;;
54977;SDS011;40873;47.522;19.106;2022-10-26T09:30:13;13.77;;;8.65;;
54977;SDS011;40873;47.522;19.106;2022-10-26T09:32:50;13.00;;;8.30;;
54977;SDS011;40873;47.522;19.106;2022-10-26T09:35:23;12.63;;;7.00;;
54977;SDS011;40873;47.522;19.106;2022-10-26T09:37:57;12.88;;;8.05;;
54977;SDS011;40873;47.522;19.106;2022-10-26T09:41:18;13.68;;;7.78;;
54977;SDS011;40873;47.522;19.106;2022-10-26T09:43:43;11.80;;;7.43;;
54977;SDS011;40873;47.522;19.106;2022-10-26T09:46:21;11.73;;;7.90;;
54977;SDS011;40873;47.522;19.106;2022-10-26T09:48:55;10.30;;;7.07;;
54977;SDS011;40873;47.522;19.106;2022-10-26T09:51:32;15.20;;;7.90;;
54977;SDS011;40873;47.522;19.106;2022-10-26T09:54:16;15.20;;;7.97;;
54977;SDS011;40873;47.522;19.106;2022-10-26T09:56:58;10.75;;;6.95;;
54977;SDS011;40873;47.522;19.106;2022-10-26T09:59:29;12.30;;;6.93;;
54977;SDS011;40873;47.522;19.106;2022-10-26T10:02:01;12.70;;;6.22;;
54977;SDS011;40873;47.522;19.106;2022-10-26T10:04:59;10.00;;;6.53;;
54977;SDS011;40873;47.522;19.106;2022-10-26T10:07:26;12.70;;;6.38;;
54977;SDS011;40873;47.522;19.106;2022-10-26T10:10:07;8.00;;;4.97;;
54977;SDS011;40873;47.522;19.106;2022-10-26T10:12:40;9.48;;;4.65;;
54977;SDS011;40873;47.522;19.106;2022-10-26T10:15:18;9.15;;;4.65;;
54977;SDS011;40873;47.522;19.106;2022-10-26T10:17:47;10.25;;;5.10;;
54977;SDS011;40873;47.522;19.106;2022-10-26T10:20:28;11.15;;;5.97;;
54977;SDS011;40873;47.522;19.106;2022-10-26T10:22:59;9.75;;;5.78;;
54977;SDS011;40873;47.522;19.106;2022-10-26T10:28:22;14.07;;;7.97;;
54977;SDS011;40873;47.522;19.106;2022-10-26T10:30:55;12.57;;;7.18;;
54977;SDS011;40873;47.522;19.106;2022-10-26T10:33:37;13.45;;;7.68;;
54977;SDS011;40873;47.522;19.106;2022-10-26T10:36:09;16.60;;;8.27;;
54977;SDS011;40873;47.522;19.106;2022-10-26T10:38:44;20.98;;;8.43;;
54977;SDS011;40873;47.522;19.106;2022-10-26T10:41:18;17.42;;;9.57;;
54977;SDS011;40873;47.522;19.106;2022-10-26T10:43:55;15.45;;;8.68;;
54977;SDS011;40873;47.522;19.106;2022-10-26T10:46:30;21.33;;;8.90;;
54977;SDS011;40873;47.522;19.106;2022-10-26T10:49:01;18.85;;;9.88;;
54977;SDS011;40873;47.522;19.106;2022-10-26T10:54:24;22.42;;;10.93;;
54977;SDS011;40873;47.522;19.106;2022-10-26T10:57:04;20.80;;;11.40;;
54977;SDS011;40873;47.522;19.106;2022-10-26T11:00:01;25.70;;;9.98;;
54977;SDS011;40873;47.522;19.106;2022-10-26T11:08:46;17.23;;;8.63;;
54977;SDS011;40873;47.522;19.106;2022-10-26T11:11:22;21.35;;;8.88;;
54977;SDS011;40873;47.522;19.106;2022-10-26T11:13:55;17.63;;;10.48;;
54977;SDS011;40873;47.522;19.106;2022-10-26T11:17:11;16.75;;;9.75;;
54977;SDS011;40873;47.522;19.106;2022-10-26T11:22:20;19.35;;;9.90;;
54977;SDS011;40873;47.522;19.106;2022-10-26T11:27:49;18.83;;;9.48;;
54977;SDS011;40873;47.522;19.106;2022-10-26T11:30:22;17.98;;;9.95;;
54977;SDS011;40873;47.522;19.106;2022-10-26T11:32:58;17.33;;;8.82;;
54977;SDS011;40873;47.522;19.106;2022-10-26T11:35:51;23.40;;;10.55;;
54977;SDS011;40873;47.522;19.106;2022-10-26T11:41:17;22.35;;;10.27;;
54977;SDS011;40873;47.522;19.106;2022-10-26T11:44:01;19.23;;;9.63;;
54977;SDS011;40873;47.522;19.106;2022-10-26T11:46:37;22.73;;;11.25;;
54977;SDS011;40873;47.522;19.106;2022-10-26T11:51:55;19.60;;;11.50;;
54977;SDS011;40873;47.522;19.106;2022-10-26T11:54:54;20.02;;;10.65;;
54977;SDS011;40873;47.522;19.106;2022-10-26T11:57:24;23.50;;;11.45;;
54977;SDS011;40873;47.522;19.106;2022-10-26T11:59:59;18.98;;;10.68;;
54977;SDS011;40873;47.522;19.106;2022-10-26T12:02:29;23.52;;;10.18;;
54977;SDS011;40873;47.522;19.106;2022-10-26T12:05:05;21.63;;;10.80;;
54977;SDS011;40873;47.522;19.106;2022-10-26T12:07:48;22.55;;;11.45;;
54977;SDS011;40873;47.522;19.106;2022-10-26T12:10:26;22.25;;;11.60;;
54977;SDS011;40873;47.522;19.106;2022-10-26T12:13:00;19.35;;;11.43;;
54977;SDS011;40873;47.522;19.106;2022-10-26T12:16:00;16.52;;;9.93;;
54977;SDS011;40873;47.522;19.106;2022-10-26T12:18:56;17.85;;;10.27;;
54977;SDS011;40873;47.522;19.106;2022-10-26T12:21:35;20.38;;;10.00;;
54977;SDS011;40873;47.522;19.106;2022-10-26T12:24:26;20.30;;;9.38;;
54977;SDS011;40873;47.522;19.106;2022-10-26T12:26:57;17.48;;;9.85;;
54977;SDS011;40873;47.522;19.106;2022-10-26T12:32:03;21.27;;;10.68;;
54977;SDS011;40873;47.522;19.106;2022-10-26T12:37:21;21.23;;;11.05;;
54977;SDS011;40873;47.522;19.106;2022-10-26T12:39:55;22.33;;;10.85;;
54977;SDS011;40873;47.522;19.106;2022-10-26T12:45:43;23.25;;;9.68;;
54977;SDS011;40873;47.522;19.106;2022-10-26T12:48:21;21.00;;;12.70;;
54977;SDS011;40873;47.522;19.106;2022-10-26T12:53:51;19.30;;;10.02;;
54977;SDS011;40873;47.522;19.106;2022-10-26T12:56:33;20.48;;;11.52;;
54977;SDS011;40873;47.522;19.106;2022-10-26T13:02:19;20.50;;;11.15;;
54977;SDS011;40873;47.522;19.106;2022-10-26T13:07:45;22.73;;;10.25;;
54977;SDS011;40873;47.522;19.106;2022-10-26T13:12:47;21.63;;;10.63;;
54977;SDS011;40873;47.522;19.106;2022-10-26T13:15:19;21.48;;;11.32;;
54977;SDS011;40873;47.522;19.106;2022-10-26T13:17:59;24.35;;;10.98;;
54977;SDS011;40873;47.522;19.106;2022-10-26T13:20:51;20.70;;;11.20;;
54977;SDS011;40873;47.522;19.106;2022-10-26T13:23:28;22.13;;;11.30;;
54977;SDS011;40873;47.522;19.106;2022-10-26T13:28:50;20.48;;;11.25;;
54977;SDS011;40873;47.522;19.106;2022-10-26T13:33:57;22.85;;;10.77;;
54977;SDS011;40873;47.522;19.106;2022-10-26T13:36:49;19.13;;;9.98;;
54977;SDS011;40873;47.522;19.106;2022-10-26T13:39:26;19.92;;;10.25;;
54977;SDS011;40873;47.522;19.106;2022-10-26T13:41:57;22.55;;;9.90;;
54977;SDS011;40873;47.522;19.106;2022-10-26T13:44:27;20.60;;;10.50;;
54977;SDS011;40873;47.522;19.106;2022-10-26T13:49:38;21.23;;;11.15;;
54977;SDS011;40873;47.522;19.106;2022-10-26T13:52:29;21.42;;;10.88;;
54977;SDS011;40873;47.522;19.106;2022-10-26T13:55:06;19.27;;;10.20;;
54977;SDS011;40873;47.522;19.106;2022-10-26T14:00:30;28.48;;;11.25;;
54977;SDS011;40873;47.522;19.106;2022-10-26T14:02:57;22.23;;;10.85;;
54977;SDS011;40873;47.522;19.106;2022-10-26T14:05:24;23.58;;;12.00;;
54977;SDS011;40873;47.522;19.106;2022-10-26T14:07:52;19.35;;;10.63;;
54977;SDS011;40873;47.522;19.106;2022-10-26T14:10:27;23.90;;;11.63;;
54977;SDS011;40873;47.522;19.106;2022-10-26T14:12:55;19.63;;;10.77;;
54977;SDS011;40873;47.522;19.106;2022-10-26T14:15:24;24.10;;;11.75;;
54977;SDS011;40873;47.522;19.106;2022-10-26T14:17:56;20.67;;;9.68;;
54977;SDS011;40873;47.522;19.106;2022-10-26T14:20:26;23.27;;;12.18;;
54977;SDS011;40873;47.522;19.106;2022-10-26T14:22:55;24.50;;;10.90;;
54977;SDS011;40873;47.522;19.106;2022-10-26T14:25:27;21.88;;;11.57;;
54977;SDS011;40873;47.522;19.106;2022-10-26T14:28:20;20.23;;;10.55;;
54977;SDS011;40873;47.522;19.106;2022-10-26T14:30:48;23.67;;;11.38;;
54977;SDS011;40873;47.522;19.106;2022-10-26T14:33:17;21.33;;;10.38;;
54977;SDS011;40873;47.522;19.106;2022-10-26T14:35:46;20.77;;;9.25;;
54977;SDS011;40873;47.522;19.106;2022-10-26T14:38:33;21.50;;;10.20;;
54977;SDS011;40873;47.522;19.106;2022-10-26T14:41:10;21.35;;;11.32;;
54977;SDS011;40873;47.522;19.106;2022-10-26T14:43:41;25.70;;;11.55;;
54977;SDS011;40873;47.522;19.106;2022-10-26T14:46:13;40.28;;;12.25;;
54977;SDS011;40873;47.522;19.106;2022-10-26T14:48:54;21.27;;;10.60;;
54977;SDS011;40873;47.522;19.106;2022-10-26T14:51:27;26.83;;;10.77;;
54977;SDS011;40873;47.522;19.106;2022-10-26T14:53:58;23.45;;;11.27;;
54977;SDS011;40873;47.522;19.106;2022-10-26T15:02:35;22.27;;;11.80;;
54977;SDS011;40873;47.522;19.106;2022-10-26T15:04:37;23.83;;;11.43;;
54977;SDS011;40873;47.522;19.106;2022-10-26T15:09:48;19.67;;;10.32;;
54977;SDS011;40873;47.522;19.106;2022-10-26T15:12:22;28.45;;;12.60;;
54977;SDS011;40873;47.522;19.106;2022-10-26T15:14:54;25.73;;;11.43;;
54977;SDS011;40873;47.522;19.106;2022-10-26T15:17:35;17.15;;;9.73;;
54977;SDS011;40873;47.522;19.106;2022-10-26T15:20:05;24.92;;;11.35;;
54977;SDS011;40873;47.522;19.106;2022-10-26T15:22:39;28.08;;;12.43;;
54977;SDS011;40873;47.522;19.106;2022-10-26T15:25:13;24.10;;;11.65;;
54977;SDS011;40873;47.522;19.106;2022-10-26T15:27:46;21.50;;;11.32;;
54977;SDS011;40873;47.522;19.106;2022-10-26T15:30:24;27.23;;;11.32;;
54977;SDS011;40873;47.522;19.106;2022-10-26T15:32:53;20.42;;;10.88;;
54977;SDS011;40873;47.522;19.106;2022-10-26T15:35:22;25.13;;;12.02;;
54977;SDS011;40873;47.522;19.106;2022-10-26T15:37:52;22.08;;;11.18;;
54977;SDS011;40873;47.522;19.106;2022-10-26T15:40:22;23.77;;;11.88;;
54977;SDS011;40873;47.522;19.106;2022-10-26T15:42:57;26.63;;;13.48;;
54977;SDS011;40873;47.522;19.106;2022-10-26T15:45:25;23.02;;;10.90;;
54977;SDS011;40873;47.522;19.106;2022-10-26T15:47:56;24.65;;;11.35;;
54977;SDS011;40873;47.522;19.106;2022-10-26T15:50:25;24.15;;;11.45;;
54977;SDS011;40873;47.522;19.106;2022-10-26T15:52:55;20.98;;;10.80;;
54977;SDS011;40873;47.522;19.106;2022-10-26T15:55:27;23.50;;;11.98;;
54977;SDS011;40873;47.522;19.106;2022-10-26T15:57:55;21.63;;;10.90;;
54977;SDS011;40873;47.522;19.106;2022-10-26T16:00:22;25.23;;;12.93;;
54977;SDS011;40873;47.522;19.106;2022-10-26T16:02:49;28.08;;;11.75;;
54977;SDS011;40873;47.522;19.106;2022-10-26T16:05:18;22.98;;;10.95;;
54977;SDS011;40873;47.522;19.106;2022-10-26T16:07:45;23.45;;;12.25;;
54977;SDS011;40873;47.522;19.106;2022-10-26T16:10:16;21.15;;;11.20;;
54977;SDS011;40873;47.522;19.106;2022-10-26T16:12:50;21.80;;;11.50;;
54977;SDS011;40873;47.522;19.106;2022-10-26T16:15:19;23.63;;;11.77;;
54977;SDS011;40873;47.522;19.106;2022-10-26T16:17:49;20.90;;;10.57;;
54977;SDS011;40873;47.522;19.106;2022-10-26T16:20:21;23.23;;;11.43;;
54977;SDS011;40873;47.522;19.106;2022-10-26T16:22:50;23.42;;;10.95;;
54977;SDS011;40873;47.522;19.106;2022-10-26T16:25:20;20.10;;;10.15;;
54977;SDS011;40873;47.522;19.106;2022-10-26T16:27:49;31.98;;;12.60;;
54977;SDS011;40873;47.522;19.106;2022-10-26T16:30:20;22.95;;;11.52;;
54977;SDS011;40873;47.522;19.106;2022-10-26T16:35:20;20.42;;;10.77;;
54977;SDS011;40873;47.522;19.106;2022-10-26T16:37:47;22.58;;;11.65;;
54977;SDS011;40873;47.522;19.106;2022-10-26T16:40:14;26.70;;;12.15;;
54977;SDS011;40873;47.522;19.106;2022-10-26T16:42:41;27.10;;;12.77;;
54977;SDS011;40873;47.522;19.106;2022-10-26T16:45:10;24.60;;;12.95;;
54977;SDS011;40873;47.522;19.106;2022-10-26T16:47:38;27.92;;;12.05;;
54977;SDS011;40873;47.522;19.106;2022-10-26T16:50:09;26.58;;;12.18;;
54977;SDS011;40873;47.522;19.106;2022-10-26T16:52:37;28.42;;;13.50;;
54977;SDS011;40873;47.522;19.106;2022-10-26T16:55:06;29.42;;;13.52;;
54977;SDS011;40873;47.522;19.106;2022-10-26T16:57:34;22.38;;;11.20;;
54977;SDS011;40873;47.522;19.106;2022-10-26T17:00:05;24.95;;;11.65;;
54977;SDS011;40873;47.522;19.106;2022-10-26T17:02:33;28.55;;;11.77;;
54977;SDS011;40873;47.522;19.106;2022-10-26T17:05:00;27.02;;;12.55;;